Terminal Aerodrome Forecast
Issued by NWS

Home | Current Version | Previous Version | Text Only | Print | Product List | Glossary On
Versions: 1 2 3 4 5 6 7 8 9 10 11 12 13 14 15 16 17 18 19 20 21 22 23 24 25 26 27 28 29 30 31 32 33 34 35 36 37 38 39 40 41 42 43 44 45
000
FTUS45 KBOU 231447 AAA
TAFBJC
TAF AMD
KBJC 231447Z 2315/2412 33006KT P6SM BKN020 BKN110
     FM231600 36005KT P6SM SCT050 BKN150
     FM231800 11007KT P6SM FEW080 BKN120
     FM232100 28010KT P6SM VCTS SCT080CB BKN120
     FM240100 33010KT P6SM VCSH SCT080 BKN120
     FM240500 30007KT P6SM FEW080 SCT120=

USA.gov is the U.S. government's official web portal to all federal, state and local government web resources and services.